createdAt,value
2018-06-23T00:00:37.481Z,7.73
2018-06-23T00:01:37.494Z,7.66
2018-06-23T00:02:37.534Z,7.74
2018-06-23T00:03:37.494Z,7.69
2018-06-23T00:04:37.494Z,7.71
2018-06-23T00:05:37.477Z,7.72
2018-06-23T00:06:37.524Z,7.72
2018-06-23T00:07:37.505Z,7.7
2018-06-23T00:08:37.517Z,7.72
2018-06-23T00:09:37.498Z,7.71
2018-06-23T00:10:37.524Z,7.7
2018-06-23T00:11:37.495Z,7.67
2018-06-23T00:12:37.470Z,7.67
2018-06-23T00:13:37.488Z,7.69
2018-06-23T00:14:37.491Z,7.68
2018-06-23T00:15:37.491Z,7.62
2018-06-23T00:16:37.509Z,7.65
2018-06-23T00:17:37.471Z,7.64
2018-06-23T00:18:37.558Z,7.65
2018-06-23T00:19:37.666Z,7.62
2018-06-23T00:20:37.515Z,7.6
2018-06-23T00:21:37.487Z,7.6
2018-06-23T00:22:37.601Z,7.59
2018-06-23T00:23:37.527Z,7.62
2018-06-23T00:24:37.504Z,7.6
2018-06-23T00:25:37.524Z,7.62
2018-06-23T00:26:37.515Z,7.59
2018-06-23T00:27:37.569Z,7.63
2018-06-23T00:28:37.483Z,7.63
2018-06-23T00:29:37.490Z,7.62
2018-06-23T00:30:37.514Z,7.63
2018-06-23T00:31:37.478Z,7.61
2018-06-23T00:32:37.509Z,7.64
2018-06-23T00:33:37.472Z,7.59
2018-06-23T00:34:37.508Z,7.63
2018-06-23T00:35:37.513Z,7.62
2018-06-23T00:36:37.494Z,7.58
2018-06-23T00:37:37.500Z,7.61
2018-06-23T00:38:37.653Z,7.57
2018-06-23T00:39:37.487Z,7.59
2018-06-23T00:40:37.549Z,7.63
2018-06-23T00:41:37.483Z,7.55
2018-06-23T00:42:37.501Z,7.6
2018-06-23T00:43:37.494Z,7.62
2018-06-23T00:44:37.508Z,7.62
2018-06-23T00:45:37.540Z,7.6
2018-06-23T00:46:37.661Z,7.57
2018-06-23T00:47:37.509Z,7.51
2018-06-23T00:48:37.544Z,7.61
2018-06-23T00:49:37.530Z,7.58
2018-06-23T00:50:37.689Z,7.53
2018-06-23T00:51:37.541Z,7.53
2018-06-23T00:52:37.583Z,7.64
2018-06-23T00:53:37.678Z,7.66
2018-06-23T00:54:37.505Z,7.67
2018-06-23T00:55:37.517Z,7.67
2018-06-23T00:56:37.524Z,7.64
2018-06-23T00:57:37.578Z,7.7
2018-06-23T00:58:37.562Z,7.68
2018-06-23T00:59:37.657Z,7.67
2018-06-23T01:00:37.560Z,7.57
2018-06-23T01:01:37.666Z,7.74
2018-06-23T01:02:37.514Z,7.73
2018-06-23T01:03:37.539Z,7.67
2018-06-23T01:04:37.564Z,7.57
2018-06-23T01:05:37.620Z,7.6
2018-06-23T01:06:37.687Z,7.69
2018-06-23T01:07:37.496Z,7.67
2018-06-23T01:08:37.551Z,7.69
2018-06-23T01:09:37.561Z,7.69
2018-06-23T01:10:37.537Z,7.69
2018-06-23T01:11:37.541Z,7.64
2018-06-23T01:12:37.539Z,7.67
2018-06-23T01:13:37.509Z,7.67
2018-06-23T01:14:37.505Z,7.67
2018-06-23T01:15:37.549Z,7.63
2018-06-23T01:16:37.520Z,7.7
2018-06-23T01:17:37.571Z,7.7
2018-06-23T01:18:37.518Z,7.59
2018-06-23T01:19:37.519Z,7.6
2018-06-23T01:20:37.502Z,7.73
2018-06-23T01:21:37.525Z,7.69
2018-06-23T01:22:37.587Z,7.69
2018-06-23T01:23:37.526Z,7.66
2018-06-23T01:24:37.515Z,7.74
2018-06-23T01:25:37.557Z,7.69
2018-06-23T01:26:37.531Z,7.65
2018-06-23T01:27:37.580Z,7.66
2018-06-23T01:28:37.527Z,7.63
2018-06-23T01:29:37.533Z,7.71
2018-06-23T01:30:37.534Z,7.69
2018-06-23T01:31:37.523Z,7.66
2018-06-23T01:32:37.808Z,7.62
2018-06-23T01:33:37.720Z,7.59
2018-06-23T01:34:37.581Z,7.64
2018-06-23T01:35:37.599Z,7.59
2018-06-23T01:36:37.606Z,7.66
2018-06-23T01:37:37.575Z,7.64
2018-06-23T01:38:37.599Z,7.6
2018-06-23T01:39:37.560Z,7.61
2018-06-23T01:40:37.902Z,7.59
2018-06-23T01:41:37.542Z,7.58
2018-06-23T01:42:37.635Z,7.59
2018-06-23T01:43:37.571Z,7.59
2018-06-23T01:44:37.545Z,7.58
2018-06-23T01:45:37.574Z,7.56
2018-06-23T01:46:37.561Z,7.55
2018-06-23T01:47:37.538Z,7.56
2018-06-23T01:48:37.567Z,7.56
2018-06-23T01:49:37.580Z,7.55
2018-06-23T01:50:37.550Z,7.55
2018-06-23T01:51:37.562Z,7.53
2018-06-23T01:52:37.556Z,7.53
2018-06-23T01:53:37.548Z,7.52
2018-06-23T01:54:37.697Z,7.54
2018-06-23T01:55:37.553Z,7.54
2018-06-23T01:56:37.675Z,7.55
2018-06-23T01:57:37.682Z,7.52
2018-06-23T01:58:37.551Z,7.54
2018-06-23T01:59:37.628Z,7.49
2018-06-23T02:00:37.560Z,7.44
2018-06-23T02:01:37.656Z,7.47
2018-06-23T02:02:37.534Z,7.48
2018-06-23T02:03:37.625Z,7.52
2018-06-23T02:04:37.599Z,7.43
2018-06-23T02:05:37.589Z,7.4
2018-06-23T02:06:37.587Z,7.43
2018-06-23T02:07:37.704Z,7.47
2018-06-23T02:08:37.549Z,7.42
2018-06-23T02:09:37.655Z,7.44
2018-06-23T02:10:37.543Z,7.48
2018-06-23T02:11:37.573Z,7.46
2018-06-23T02:12:37.579Z,7.49
2018-06-23T02:13:37.553Z,7.43
2018-06-23T02:14:37.592Z,7.39
2018-06-23T02:15:37.571Z,7.44
2018-06-23T02:16:37.559Z,7.43
2018-06-23T02:17:37.568Z,7.5
2018-06-23T02:18:37.579Z,7.39
2018-06-23T02:19:37.591Z,7.46
2018-06-23T02:20:37.566Z,7.5
2018-06-23T02:21:37.589Z,7.49
2018-06-23T02:22:37.570Z,7.53
2018-06-23T02:23:37.570Z,7.53
2018-06-23T02:24:37.557Z,7.52
2018-06-23T02:25:37.561Z,7.51
2018-06-23T02:26:37.564Z,7.54
2018-06-23T02:27:37.567Z,7.55
2018-06-23T02:28:37.560Z,7.52
2018-06-23T02:29:37.588Z,7.52
2018-06-23T02:30:37.553Z,7.46
2018-06-23T02:31:37.572Z,7.54
2018-06-23T02:32:37.589Z,7.42
2018-06-23T02:33:37.570Z,7.52
2018-06-23T02:34:37.589Z,7.5
2018-06-23T02:35:37.590Z,7.49
2018-06-23T02:36:37.566Z,7.51
2018-06-23T02:37:37.586Z,7.54
2018-06-23T02:38:37.576Z,7.52
2018-06-23T02:39:37.622Z,7.53
2018-06-23T02:40:37.612Z,7.5
2018-06-23T02:41:37.586Z,7.53
2018-06-23T02:42:37.738Z,7.5
2018-06-23T02:43:37.587Z,7.59
2018-06-23T02:44:37.588Z,7.58
2018-06-23T02:45:37.578Z,7.57
2018-06-23T02:46:37.611Z,7.54
2018-06-23T02:47:37.607Z,7.56
2018-06-23T02:48:37.649Z,7.56
2018-06-23T02:49:38.001Z,7.55
2018-06-23T02:50:37.594Z,7.54
2018-06-23T02:51:37.794Z,7.56
2018-06-23T02:52:37.644Z,7.53
2018-06-23T02:53:37.721Z,7.52
2018-06-23T02:54:37.647Z,7.47
2018-06-23T02:55:37.593Z,7.53
2018-06-23T02:56:37.631Z,7.52
2018-06-23T02:57:37.636Z,7.55
2018-06-23T02:58:37.985Z,7.55
2018-06-23T02:59:37.656Z,7.53
2018-06-23T03:00:37.618Z,7.49
2018-06-23T03:01:37.616Z,7.5
2018-06-23T03:02:37.601Z,7.52
2018-06-23T03:03:37.677Z,7.57
2018-06-23T03:04:37.626Z,7.54
2018-06-23T03:05:37.597Z,7.56
2018-06-23T03:06:37.601Z,7.54
2018-06-23T03:07:37.577Z,7.57
2018-06-23T03:08:37.601Z,7.58
2018-06-23T03:09:37.632Z,7.58
2018-06-23T03:10:37.604Z,7.56
2018-06-23T03:11:37.631Z,7.58
2018-06-23T03:12:37.603Z,7.56
2018-06-23T03:13:37.644Z,7.6
2018-06-23T03:14:37.590Z,7.6
2018-06-23T03:15:37.670Z,7.61
2018-06-23T03:16:37.609Z,7.57
2018-06-23T03:17:37.684Z,7.6
2018-06-23T03:18:37.610Z,7.58
2018-06-23T03:19:37.627Z,7.56
2018-06-23T03:20:37.779Z,7.56
2018-06-23T03:21:37.659Z,7.56
2018-06-23T03:22:37.702Z,7.58
2018-06-23T03:23:37.601Z,7.6
2018-06-23T03:24:37.616Z,7.57
2018-06-23T03:25:37.643Z,7.59
2018-06-23T03:26:37.694Z,7.54
2018-06-23T03:27:37.671Z,7.56
2018-06-23T03:28:37.641Z,7.57
2018-06-23T03:29:37.616Z,7.55
2018-06-23T03:30:37.593Z,7.54
2018-06-23T03:31:37.580Z,7.57
2018-06-23T03:32:37.613Z,7.53
2018-06-23T03:33:37.590Z,7.53
2018-06-23T03:34:37.631Z,7.54
2018-06-23T03:35:37.601Z,7.53
2018-06-23T03:36:37.634Z,7.57
2018-06-23T03:37:37.616Z,7.57
2018-06-23T03:38:37.631Z,7.58
2018-06-23T03:39:37.622Z,7.58
2018-06-23T03:40:37.612Z,7.6
2018-06-23T03:41:37.585Z,7.54
2018-06-23T03:42:37.586Z,7.53
2018-06-23T03:43:37.623Z,7.54
2018-06-23T03:44:37.593Z,7.6
2018-06-23T03:45:37.654Z,7.57
2018-06-23T03:46:37.607Z,7.52
2018-06-23T03:47:37.620Z,7.6
2018-06-23T03:48:37.668Z,7.62
2018-06-23T03:49:37.629Z,7.59
2018-06-23T03:50:37.630Z,7.59
2018-06-23T03:51:37.643Z,7.56
2018-06-23T03:52:37.650Z,7.55
2018-06-23T03:53:37.721Z,7.61
2018-06-23T03:54:37.659Z,7.61
2018-06-23T03:55:37.642Z,7.58
2018-06-23T03:56:37.660Z,7.6
2018-06-23T03:57:37.703Z,7.67
2018-06-23T03:58:37.605Z,7.66
2018-06-23T03:59:37.658Z,7.61
2018-06-23T04:00:37.656Z,7.72
2018-06-23T04:01:37.632Z,7.72
2018-06-23T04:02:37.589Z,7.71
2018-06-23T04:03:37.640Z,7.72
2018-06-23T04:04:37.624Z,7.74
2018-06-23T04:05:37.679Z,7.7
2018-06-23T04:06:37.638Z,7.73
2018-06-23T04:07:37.636Z,7.71
2018-06-23T04:08:37.624Z,7.73
2018-06-23T04:09:37.828Z,7.74
2018-06-23T04:10:37.616Z,7.72
2018-06-23T04:11:37.682Z,7.66
2018-06-23T04:12:37.689Z,7.66
2018-06-23T04:13:37.841Z,7.65
2018-06-23T04:14:37.742Z,7.77
2018-06-23T04:15:37.853Z,7.76
2018-06-23T04:16:37.645Z,7.82
2018-06-23T04:17:37.626Z,7.81
2018-06-23T04:18:37.626Z,7.82
2018-06-23T04:19:37.621Z,7.82
2018-06-23T04:20:37.659Z,7.8
2018-06-23T04:21:37.655Z,7.84
2018-06-23T04:22:37.903Z,7.77
2018-06-23T04:23:37.610Z,7.78
2018-06-23T04:24:37.622Z,7.75
2018-06-23T04:25:37.656Z,7.74
2018-06-23T04:26:37.669Z,7.77
2018-06-23T04:27:37.717Z,7.84
2018-06-23T04:28:37.674Z,7.84
2018-06-23T04:29:37.645Z,7.84
2018-06-23T04:30:37.628Z,7.81
2018-06-23T04:31:37.694Z,7.89
2018-06-23T04:32:37.851Z,7.83
2018-06-23T04:33:37.807Z,7.88
2018-06-23T04:34:37.647Z,7.92
2018-06-23T04:35:37.640Z,7.92
2018-06-23T04:36:37.637Z,7.88
2018-06-23T04:37:37.761Z,7.9
2018-06-23T04:38:37.616Z,7.91
2018-06-23T04:39:37.668Z,7.85
2018-06-23T04:40:37.636Z,7.9
2018-06-23T04:41:37.647Z,7.87
2018-06-23T04:42:37.679Z,7.93
2018-06-23T04:43:37.657Z,7.88
2018-06-23T04:44:37.658Z,7.89
2018-06-23T04:45:37.696Z,7.9
2018-06-23T04:46:37.677Z,7.87
2018-06-23T04:47:37.637Z,7.91
2018-06-23T04:48:37.634Z,7.93
2018-06-23T04:49:37.631Z,7.87
2018-06-23T04:50:37.654Z,7.85
2018-06-23T04:51:37.655Z,7.94
2018-06-23T04:52:37.714Z,7.96
2018-06-23T04:53:37.654Z,7.95
2018-06-23T04:54:37.675Z,7.91
2018-06-23T04:55:37.808Z,7.93
2018-06-23T04:56:37.670Z,7.97
2018-06-23T04:57:37.741Z,8
2018-06-23T04:58:37.673Z,7.9
2018-06-23T04:59:37.647Z,7.95
2018-06-23T05:00:37.705Z,7.93
2018-06-23T05:01:37.746Z,7.93
2018-06-23T05:02:37.729Z,7.98
2018-06-23T05:03:38.116Z,8.03
2018-06-23T05:04:37.638Z,8.01
2018-06-23T05:05:37.649Z,8.05
2018-06-23T05:06:37.868Z,8.05
2018-06-23T05:07:37.684Z,8.08
2018-06-23T05:08:37.649Z,8.08
2018-06-23T05:09:38.055Z,8.02
2018-06-23T05:10:37.632Z,8.06
2018-06-23T05:11:37.759Z,8.09
2018-06-23T05:12:37.714Z,8.12
2018-06-23T05:13:37.795Z,8.12
2018-06-23T05:14:37.769Z,8.12
2018-06-23T05:15:37.691Z,8.14
2018-06-23T05:16:37.980Z,8.06
2018-06-23T05:17:37.656Z,8.14
2018-06-23T05:18:37.800Z,8.13
2018-06-23T05:19:37.672Z,8.16
2018-06-23T05:20:37.813Z,8.14
2018-06-23T05:21:37.647Z,8.18
2018-06-23T05:22:37.753Z,8.14
2018-06-23T05:23:37.659Z,8.15
2018-06-23T05:24:37.821Z,8.17
2018-06-23T05:25:37.664Z,8.17
2018-06-23T05:26:37.688Z,8.12
2018-06-23T05:27:37.662Z,8.13
2018-06-23T05:28:37.711Z,8.2
2018-06-23T05:29:37.723Z,8.22
2018-06-23T05:30:37.970Z,8.23
2018-06-23T05:31:37.940Z,8.19
2018-06-23T05:32:37.723Z,8.27
2018-06-23T05:33:37.686Z,8.29
2018-06-23T05:34:37.695Z,8.26
2018-06-23T05:35:37.677Z,8.31
2018-06-23T05:36:37.664Z,8.28
2018-06-23T05:37:37.974Z,8.31
2018-06-23T05:38:37.674Z,8.32
2018-06-23T05:39:37.661Z,8.32
2018-06-23T05:40:37.692Z,8.32
2018-06-23T05:41:37.685Z,8.31
2018-06-23T05:42:37.680Z,8.35
2018-06-23T05:43:37.669Z,8.32
2018-06-23T05:44:37.694Z,8.33
2018-06-23T05:45:37.738Z,8.33
2018-06-23T05:46:37.727Z,8.36
2018-06-23T05:47:37.731Z,8.35
2018-06-23T05:48:37.698Z,8.37
2018-06-23T05:49:37.681Z,8.42
2018-06-23T05:50:37.705Z,8.44
2018-06-23T05:51:37.787Z,8.35
2018-06-23T05:52:37.732Z,8.37
2018-06-23T05:53:37.760Z,8.4
2018-06-23T05:54:37.719Z,8.4
2018-06-23T05:55:37.694Z,8.42
2018-06-23T05:56:37.781Z,8.37
2018-06-23T05:57:37.690Z,8.35
2018-06-23T05:58:37.713Z,8.42
2018-06-23T05:59:37.919Z,8.41
2018-06-23T06:00:38.077Z,8.41
2018-06-23T06:01:37.735Z,8.4
2018-06-23T06:02:37.728Z,8.38
2018-06-23T06:03:37.696Z,8.4
2018-06-23T06:04:37.806Z,8.39
2018-06-23T06:05:37.890Z,8.38
2018-06-23T06:06:37.702Z,8.39
2018-06-23T06:07:37.693Z,8.37
2018-06-23T06:08:37.701Z,8.38
2018-06-23T06:09:37.712Z,8.41
2018-06-23T06:10:37.763Z,8.4
2018-06-23T06:11:37.918Z,8.38
2018-06-23T06:12:37.699Z,8.29
2018-06-23T06:13:37.698Z,8.32
2018-06-23T06:14:37.789Z,8.35
2018-06-23T06:15:37.789Z,8.36
2018-06-23T06:16:37.758Z,8.37
2018-06-23T06:17:37.718Z,8.39
2018-06-23T06:18:37.698Z,8.4
2018-06-23T06:19:37.736Z,8.38
2018-06-23T06:20:37.720Z,8.41
2018-06-23T06:21:37.733Z,8.36
2018-06-23T06:22:37.710Z,8.37
2018-06-23T06:23:37.747Z,8.36
2018-06-23T06:24:37.718Z,8.36
2018-06-23T06:25:37.721Z,8.4
2018-06-23T06:26:37.719Z,8.41
2018-06-23T06:27:37.727Z,8.46
2018-06-23T06:28:37.708Z,8.46
2018-06-23T06:29:37.700Z,8.32
2018-06-23T06:30:37.694Z,8.24
2018-06-23T06:31:37.689Z,8.2
2018-06-23T06:32:37.726Z,8.14
2018-06-23T06:33:37.737Z,8.18
2018-06-23T06:34:37.767Z,8.23
2018-06-23T06:35:37.904Z,8.22
2018-06-23T06:36:37.700Z,8.23
2018-06-23T06:37:37.725Z,8.18
2018-06-23T06:38:37.728Z,8.18
2018-06-23T06:39:37.691Z,8.17
2018-06-23T06:40:37.734Z,8.22
2018-06-23T06:41:37.788Z,8.23
2018-06-23T06:42:37.756Z,8.16
2018-06-23T06:43:37.715Z,8.22
2018-06-23T06:44:38.421Z,8.24
2018-06-23T06:45:37.725Z,8.24
2018-06-23T06:46:37.711Z,8.32
2018-06-23T06:47:37.741Z,8.3
2018-06-23T06:48:37.734Z,8.15
2018-06-23T06:49:37.816Z,8.18
2018-06-23T06:50:37.727Z,8.21
2018-06-23T06:51:37.895Z,8.19
2018-06-23T06:52:37.792Z,8.14
2018-06-23T06:53:37.810Z,8.1
2018-06-23T06:54:37.842Z,8.14
2018-06-23T06:55:37.708Z,8.2
2018-06-23T06:56:37.789Z,8.14
2018-06-23T06:57:37.875Z,8.19
2018-06-23T06:58:37.750Z,8.1
2018-06-23T06:59:37.807Z,8.11
2018-06-23T07:00:37.712Z,8.13
2018-06-23T07:01:37.776Z,8.15
2018-06-23T07:02:37.821Z,8.09
2018-06-23T07:03:37.891Z,8.17
2018-06-23T07:04:37.711Z,8.03
2018-06-23T07:05:37.714Z,8.04
2018-06-23T07:06:37.907Z,8.11
2018-06-23T07:07:37.731Z,8.08
2018-06-23T07:08:37.727Z,8.12
2018-06-23T07:09:37.734Z,8.21
2018-06-23T07:10:37.730Z,8.21
2018-06-23T07:11:37.725Z,8.07
2018-06-23T07:12:37.749Z,8.07
2018-06-23T07:13:37.719Z,8.03
2018-06-23T07:14:37.736Z,8.04
2018-06-23T07:15:38.389Z,8.03
2018-06-23T07:16:37.923Z,8.08
2018-06-23T07:17:38.156Z,8.08
2018-06-23T07:18:37.737Z,8.11
2018-06-23T07:19:37.764Z,8.17
2018-06-23T07:20:37.778Z,8.18
2018-06-23T07:21:37.808Z,8.19
2018-06-23T07:22:37.740Z,8.1
2018-06-23T07:23:38.874Z,7.87
2018-06-23T07:24:37.863Z,7.67
2018-06-23T07:25:37.764Z,7.73
2018-06-23T07:26:37.725Z,7.72
2018-06-23T07:27:37.800Z,7.79
2018-06-23T07:28:37.753Z,7.79
2018-06-23T07:29:37.765Z,7.91
2018-06-23T07:30:37.746Z,7.86
2018-06-23T07:31:37.776Z,7.77
2018-06-23T07:32:37.748Z,7.7
2018-06-23T07:33:37.725Z,7.68
2018-06-23T07:34:38.459Z,7.76
2018-06-23T07:35:37.752Z,7.75
2018-06-23T07:36:37.733Z,7.76
2018-06-23T07:37:37.798Z,7.91
2018-06-23T07:38:37.762Z,7.69
2018-06-23T07:39:37.746Z,7.72
2018-06-23T07:40:38.033Z,7.79
2018-06-23T07:41:37.768Z,7.8
2018-06-23T07:42:37.774Z,7.8
2018-06-23T07:43:37.732Z,7.81
2018-06-23T07:44:37.752Z,7.76
2018-06-23T07:45:37.751Z,7.89
2018-06-23T07:46:38.230Z,7.86
2018-06-23T07:47:37.764Z,7.88
2018-06-23T07:48:37.827Z,7.92
2018-06-23T07:49:37.762Z,7.82
2018-06-23T07:50:37.783Z,7.87
2018-06-23T07:51:37.768Z,7.79
2018-06-23T07:52:37.754Z,7.88
2018-06-23T07:53:37.778Z,7.85
2018-06-23T07:54:37.751Z,7.86
2018-06-23T07:55:37.846Z,7.74
2018-06-23T07:56:37.781Z,7.88
2018-06-23T07:57:37.768Z,7.67
2018-06-23T07:58:37.734Z,7.67
2018-06-23T07:59:37.864Z,7.7
2018-06-23T08:00:37.746Z,7.66
2018-06-23T08:01:38.177Z,7.66
2018-06-23T08:02:37.739Z,7.66
2018-06-23T08:03:37.973Z,7.65
2018-06-23T08:04:37.886Z,7.72
2018-06-23T08:05:37.904Z,7.68
2018-06-23T08:06:37.757Z,7.76
2018-06-23T08:07:37.794Z,7.76
2018-06-23T08:08:37.876Z,7.79
2018-06-23T08:09:37.743Z,7.75
2018-06-23T08:10:37.767Z,7.75
2018-06-23T08:11:38.228Z,7.81
2018-06-23T08:12:37.761Z,7.87
2018-06-23T08:13:37.759Z,7.88
2018-06-23T08:14:37.803Z,7.77
2018-06-23T08:15:37.788Z,7.72
2018-06-23T08:16:37.772Z,7.67
2018-06-23T08:17:37.757Z,7.57
2018-06-23T08:18:38.385Z,7.61
2018-06-23T08:19:37.752Z,7.65
2018-06-23T08:20:37.783Z,7.58
2018-06-23T08:21:37.764Z,7.65
2018-06-23T08:22:37.773Z,7.64
2018-06-23T08:23:37.784Z,7.62
2018-06-23T08:24:37.804Z,7.65
2018-06-23T08:25:37.816Z,7.73
2018-06-23T08:26:38.601Z,7.68
2018-06-23T08:27:37.799Z,7.68
2018-06-23T08:28:37.831Z,7.65
2018-06-23T08:29:37.809Z,7.68
2018-06-23T08:30:37.811Z,7.74
2018-06-23T08:31:37.844Z,7.8
2018-06-23T08:32:37.796Z,7.8
2018-06-23T08:33:37.768Z,7.8
2018-06-23T08:34:37.827Z,7.79
2018-06-23T08:35:37.758Z,7.87
2018-06-23T08:36:37.778Z,7.82
2018-06-23T08:37:37.978Z,7.78
2018-06-23T08:38:37.765Z,7.81
2018-06-23T08:39:37.835Z,7.79
2018-06-23T08:40:37.793Z,7.79
2018-06-23T08:41:37.771Z,7.75
2018-06-23T08:42:37.762Z,7.78
2018-06-23T08:43:38.164Z,7.75
2018-06-23T08:44:37.824Z,7.75
2018-06-23T08:45:37.815Z,7.75
2018-06-23T08:46:37.764Z,7.76
2018-06-23T08:47:37.771Z,7.77
2018-06-23T08:48:37.779Z,7.69
2018-06-23T08:49:37.787Z,7.64
2018-06-23T08:50:37.829Z,7.73
2018-06-23T08:51:37.779Z,7.63
2018-06-23T08:52:37.773Z,7.65
2018-06-23T08:53:37.802Z,7.58
2018-06-23T08:54:37.853Z,7.69
2018-06-23T08:55:37.851Z,7.69
2018-06-23T08:56:42.477Z,7.66
2018-06-23T08:57:37.978Z,7.55
2018-06-23T08:58:37.874Z,7.64
2018-06-23T08:59:37.786Z,7.64
2018-06-23T09:00:37.879Z,7.68
2018-06-23T09:01:37.904Z,7.54
2018-06-23T09:02:37.962Z,7.61
2018-06-23T09:03:37.939Z,7.78
2018-06-23T09:04:38.034Z,7.65
2018-06-23T09:05:37.835Z,7.77
2018-06-23T09:06:37.926Z,7.82
2018-06-23T09:07:37.806Z,7.82
2018-06-23T09:08:37.950Z,7.7
2018-06-23T09:09:37.963Z,7.68
2018-06-23T09:10:38.075Z,7.6
2018-06-23T09:11:37.955Z,7.65
2018-06-23T09:12:38.360Z,7.64
2018-06-23T09:13:38.143Z,7.7
2018-06-23T09:14:38.119Z,7.66
2018-06-23T09:15:37.916Z,7.68
2018-06-23T09:16:37.991Z,7.73
2018-06-23T09:17:38.052Z,7.59
2018-06-23T09:18:37.967Z,7.66
2018-06-23T09:19:39.508Z,7.54
2018-06-23T09:20:37.933Z,7.6
2018-06-23T09:21:38.048Z,7.51
2018-06-23T09:22:38.080Z,7.44
2018-06-23T09:23:37.950Z,7.44
2018-06-23T09:24:37.929Z,7.34
2018-06-23T09:25:38.229Z,7.38
2018-06-23T09:26:37.884Z,7.38
2018-06-23T09:27:38.016Z,7.34
2018-06-23T09:28:37.843Z,7.15
2018-06-23T09:29:37.925Z,7.2
2018-06-23T09:30:37.911Z,7.17
2018-06-23T09:31:37.788Z,7.02
2018-06-23T09:32:38.034Z,7.16
2018-06-23T09:33:37.859Z,7.28
2018-06-23T09:34:37.861Z,7.39
2018-06-23T09:35:37.816Z,7.36
2018-06-23T09:36:37.848Z,7.41
2018-06-23T09:37:38.041Z,7.3
2018-06-23T09:38:37.996Z,7.28
2018-06-23T09:39:37.993Z,7.27
2018-06-23T09:40:37.819Z,6.98
2018-06-23T09:41:38.910Z,7.12
2018-06-23T09:42:37.890Z,7.14
2018-06-23T09:43:37.793Z,7.04
2018-06-23T09:44:37.984Z,7.03
2018-06-23T09:45:37.813Z,7.07
2018-06-23T09:46:38.093Z,7.27
2018-06-23T09:47:38.006Z,7.25
2018-06-23T09:48:37.911Z,7.29
2018-06-23T09:49:38.020Z,7.48
2018-06-23T09:50:37.966Z,7.59
2018-06-23T09:51:38.041Z,7.55
2018-06-23T09:52:38.039Z,7.41
2018-06-23T09:53:37.948Z,7.47
2018-06-23T09:54:37.982Z,7.49
2018-06-23T09:55:37.980Z,7.41
2018-06-23T09:56:37.879Z,7.44
2018-06-23T09:57:37.981Z,7.36
2018-06-23T09:58:37.972Z,7.31
2018-06-23T09:59:38.015Z,7.28
2018-06-23T10:00:37.999Z,7.31
2018-06-23T10:01:37.832Z,7.32
2018-06-23T10:02:37.989Z,7.34
2018-06-23T10:03:38.023Z,7.42
2018-06-23T10:04:37.923Z,7.29
2018-06-23T10:05:37.921Z,7.29
2018-06-23T10:06:37.829Z,7.23
2018-06-23T10:07:37.816Z,6.89
2018-06-23T10:08:38.840Z,7.02
2018-06-23T10:09:37.845Z,6.91
2018-06-23T10:10:37.799Z,7.03
2018-06-23T10:11:37.947Z,7.15
2018-06-23T10:12:37.980Z,7.03
2018-06-23T10:13:37.985Z,7.07
2018-06-23T10:14:38.019Z,7.04
2018-06-23T10:15:37.831Z,6.67
2018-06-23T10:16:38.412Z,6.67
2018-06-23T10:17:38.414Z,6.51
2018-06-23T10:18:37.854Z,6.57
2018-06-23T10:19:37.913Z,6.7
2018-06-23T10:20:38.232Z,6.82
2018-06-23T10:21:37.941Z,6.73
2018-06-23T10:22:38.191Z,6.73
2018-06-23T10:23:37.933Z,6.8
2018-06-23T10:24:38.809Z,6.9
2018-06-23T10:25:37.889Z,6.84
2018-06-23T10:26:37.963Z,6.85
2018-06-23T10:27:37.916Z,6.78
2018-06-23T10:28:37.841Z,6.9
2018-06-23T10:29:37.978Z,6.93
2018-06-23T10:30:37.836Z,7.09
2018-06-23T10:31:37.843Z,7.03
2018-06-23T10:32:38.428Z,7.01
2018-06-23T10:33:37.899Z,7
2018-06-23T10:34:37.857Z,6.93
2018-06-23T10:35:38.022Z,6.94
2018-06-23T10:36:37.860Z,6.7
2018-06-23T10:37:37.944Z,6.72
2018-06-23T10:38:38.886Z,6.73
2018-06-23T10:39:37.879Z,6.7
2018-06-23T10:40:38.027Z,6.6
2018-06-23T10:41:37.994Z,6.74
2018-06-23T10:42:37.864Z,6.63
2018-06-23T10:43:37.933Z,6.69
2018-06-23T10:44:37.874Z,6.66
2018-06-23T10:45:37.988Z,6.46
2018-06-23T10:46:37.869Z,6.46
2018-06-23T10:47:38.118Z,6.7
2018-06-23T10:48:37.881Z,6.79
2018-06-23T10:49:37.855Z,6.79
2018-06-23T10:50:38.226Z,6.62
2018-06-23T10:51:38.072Z,6.74
2018-06-23T10:52:38.045Z,6.89
2018-06-23T10:53:38.135Z,6.85
2018-06-23T10:54:37.952Z,6.86
2018-06-23T10:55:37.989Z,6.91
2018-06-23T10:56:38.100Z,6.9
2018-06-23T10:57:37.815Z,6.86
2018-06-23T10:58:38.120Z,6.87
2018-06-23T10:59:38.152Z,6.87
2018-06-23T11:00:37.997Z,6.86
2018-06-23T11:01:38.022Z,7.05
2018-06-23T11:02:38.061Z,7.04
2018-06-23T11:03:38.057Z,6.87
2018-06-23T11:04:38.815Z,6.96
2018-06-23T11:05:38.090Z,6.94
2018-06-23T11:06:37.860Z,6.89
2018-06-23T11:07:37.899Z,6.96
2018-06-23T11:08:37.947Z,6.91
2018-06-23T11:09:37.891Z,6.92
2018-06-23T11:10:37.887Z,6.86
2018-06-23T11:11:37.989Z,6.83
2018-06-23T11:12:37.860Z,7.06
2018-06-23T11:13:37.874Z,7
2018-06-23T11:14:37.988Z,7.05
2018-06-23T11:15:37.979Z,6.96
2018-06-23T11:16:37.870Z,7
2018-06-23T11:17:37.915Z,6.9
2018-06-23T11:18:38.017Z,7.06
2018-06-23T11:19:38.104Z,7.1
2018-06-23T11:20:38.020Z,7
2018-06-23T11:21:37.887Z,7.04
2018-06-23T11:22:37.919Z,6.81
2018-06-23T11:23:38.061Z,6.87
2018-06-23T11:24:39.163Z,6.95
2018-06-23T11:25:38.135Z,6.73
2018-06-23T11:26:37.881Z,6.91
2018-06-23T11:27:37.958Z,6.98
2018-06-23T11:28:38.073Z,6.66
2018-06-23T11:29:37.986Z,6.81
2018-06-23T11:30:38.103Z,6.91
2018-06-23T11:31:37.929Z,6.86
2018-06-23T11:32:37.994Z,6.75
2018-06-23T11:33:37.893Z,6.84
2018-06-23T11:34:37.920Z,6.81
2018-06-23T11:35:38.018Z,6.74
2018-06-23T11:36:37.910Z,6.42
2018-06-23T11:37:37.979Z,6.49
2018-06-23T11:38:37.882Z,6.52
2018-06-23T11:39:37.961Z,6.68
2018-06-23T11:40:38.264Z,6.64
2018-06-23T11:41:43.089Z,6.67
2018-06-23T11:42:38.089Z,6.64
2018-06-23T11:43:37.888Z,6.82
2018-06-23T11:44:37.893Z,6.71
2018-06-23T11:45:37.938Z,6.67
2018-06-23T11:46:38.427Z,6.71
2018-06-23T11:47:38.121Z,6.66
2018-06-23T11:48:38.000Z,6.8
2018-06-23T11:49:37.889Z,6.72
2018-06-23T11:50:38.162Z,6.71
2018-06-23T11:51:38.068Z,6.65
2018-06-23T11:52:38.180Z,6.81
2018-06-23T11:53:38.060Z,6.73
2018-06-23T11:54:38.199Z,6.59
2018-06-23T11:55:38.211Z,6.62
2018-06-23T11:56:38.223Z,6.87
2018-06-23T11:57:38.303Z,6.73
2018-06-23T11:58:38.236Z,6.69
2018-06-23T11:59:37.989Z,6.75
2018-06-23T12:00:37.952Z,6.9
2018-06-23T12:01:37.895Z,6.83
2018-06-23T12:02:38.043Z,6.88
2018-06-23T12:03:37.951Z,6.83
2018-06-23T12:04:38.053Z,6.8
2018-06-23T12:05:38.234Z,6.89
2018-06-23T12:06:38.050Z,6.85
2018-06-23T12:07:38.062Z,6.92
2018-06-23T12:08:38.050Z,6.82
2018-06-23T12:09:37.914Z,6.82
2018-06-23T12:10:38.080Z,6.85
2018-06-23T12:11:38.289Z,6.86
2018-06-23T12:12:37.904Z,6.65
2018-06-23T12:13:39.011Z,6.72
2018-06-23T12:14:37.985Z,6.82
2018-06-23T12:15:37.903Z,6.9
2018-06-23T12:16:37.920Z,6.94
2018-06-23T12:17:37.996Z,6.92
2018-06-23T12:18:37.958Z,6.8
2018-06-23T12:19:37.897Z,6.78
2018-06-23T12:20:38.059Z,6.84
2018-06-23T12:21:37.918Z,6.75
2018-06-23T12:22:37.943Z,6.77
2018-06-23T12:23:37.964Z,6.79
2018-06-23T12:24:38.057Z,6.67
2018-06-23T12:25:37.937Z,6.83
2018-06-23T12:26:37.965Z,6.78
2018-06-23T12:27:38.091Z,6.68
2018-06-23T12:28:37.925Z,6.6
2018-06-23T12:29:38.093Z,6.72
2018-06-23T12:30:37.905Z,6.78
2018-06-23T12:31:38.046Z,6.68
2018-06-23T12:32:38.019Z,6.73
2018-06-23T12:33:38.162Z,6.6
2018-06-23T12:34:38.028Z,6.67
2018-06-23T12:35:38.233Z,6.69
2018-06-23T12:36:38.237Z,6.68
2018-06-23T12:37:37.954Z,6.7
2018-06-23T12:38:38.063Z,6.67
2018-06-23T12:39:38.170Z,6.85
2018-06-23T12:40:38.094Z,6.87
2018-06-23T12:41:39.016Z,6.83
2018-06-23T12:42:37.976Z,6.77
2018-06-23T12:43:38.071Z,6.79
2018-06-23T12:44:38.194Z,6.79
2018-06-23T12:45:37.997Z,6.77
2018-06-23T12:46:38.041Z,6.85
2018-06-23T12:47:38.130Z,6.77
2018-06-23T12:48:38.056Z,6.8
2018-06-23T12:49:37.933Z,6.8
2018-06-23T12:50:38.130Z,6.77
2018-06-23T12:51:38.089Z,6.66
2018-06-23T12:52:37.949Z,6.64
2018-06-23T12:53:38.040Z,6.68
2018-06-23T12:54:38.064Z,6.83
2018-06-23T12:55:38.071Z,6.95
2018-06-23T12:56:38.069Z,6.81
2018-06-23T12:57:38.027Z,6.85
2018-06-23T12:58:38.327Z,6.75
2018-06-23T12:59:39.659Z,6.83
2018-06-23T13:00:38.203Z,6.76
2018-06-23T13:01:38.826Z,7.04
2018-06-23T13:02:38.213Z,6.92
2018-06-23T13:03:37.952Z,6.93
2018-06-23T13:04:38.129Z,6.78
2018-06-23T13:05:37.930Z,6.98
2018-06-23T13:06:38.110Z,6.97
2018-06-23T13:07:38.066Z,7.06
2018-06-23T13:08:38.191Z,6.99
2018-06-23T13:09:38.035Z,6.92
2018-06-23T13:10:38.000Z,6.98
2018-06-23T13:11:39.202Z,6.92
2018-06-23T13:12:38.077Z,6.99
2018-06-23T13:13:38.045Z,7.06
2018-06-23T13:14:39.213Z,7.08
2018-06-23T13:15:37.952Z,7.15
2018-06-23T13:16:38.212Z,7.03
2018-06-23T13:17:38.208Z,7
2018-06-23T13:18:37.952Z,7.06
2018-06-23T13:19:38.015Z,7.09
2018-06-23T13:20:38.026Z,7.08
2018-06-23T13:21:39.166Z,7.09